Time;durP1;ratioP1;P1;durP2;ratioP2;P2;SDS_P1;SDS_P2;PMS_P1;PMS_P2;Temp;Humidity;BMP_temperature;BMP_pressure;BME280_temperature;BME280_humidity;BME280_pressure;Samples;Min_cycle;Max_cycle;Signal;HPM_P1;HPM_P2
2022/12/04 00:01:47;;;;;;;69.32;40.53;;;;;;;-0.69;100.00;101577.56;5066491;28;20024;-80
2022/12/04 00:04:12;;;;;;;65.18;38.67;;;;;;;-0.60;100.00;101590.69;5068126;28;20051;-80
2022/12/04 00:06:37;;;;;;;69.57;40.85;;;;;;;-0.62;100.00;101587.22;5069153;28;20036;-80
2022/12/04 00:09:04;;;;;;;66.20;39.50;;;;;;;-0.60;100.00;101595.94;5069635;28;20402;-80
2022/12/04 00:11:31;;;;;;;64.28;39.03;;;;;;;-0.61;100.00;101580.25;5072490;28;20461;-81
2022/12/04 00:13:58;;;;;;;67.07;40.13;;;;;;;-0.62;100.00;101579.38;5067244;28;20032;-79
2022/12/04 00:16:26;;;;;;;68.38;39.20;;;;;;;-0.61;100.00;101588.94;5067767;28;20024;-80
2022/12/04 00:18:52;;;;;;;67.63;39.83;;;;;;;-0.63;100.00;101580.22;5068762;28;20031;-77
2022/12/04 00:21:19;;;;;;;66.40;39.58;;;;;;;-0.60;100.00;101589.81;5067598;28;20469;-79
2022/12/04 00:23:45;;;;;;;69.03;41.55;;;;;;;-0.59;100.00;101584.59;5054082;28;20029;-78
2022/12/04 00:26:14;;;;;;;69.60;41.22;;;;;;;-0.63;100.00;101584.56;5067973;28;20029;-79
2022/12/04 00:28:40;;;;;;;67.97;40.33;;;;;;;-0.60;100.00;101580.25;5067078;28;20063;-79
2022/12/04 00:31:07;;;;;;;70.38;41.92;;;;;;;-0.60;100.00;101582.84;5070621;28;20634;-79
2022/12/04 00:33:34;;;;;;;66.60;40.30;;;;;;;-0.62;100.00;101587.22;5058735;28;20046;-80
2022/12/04 00:36:01;;;;;;;70.93;41.58;;;;;;;-0.63;100.00;101581.94;5068317;28;20046;-79
2022/12/04 00:38:27;;;;;;;70.50;41.10;;;;;;;-0.66;100.00;101569.75;5050539;28;20569;-79
2022/12/04 00:40:52;;;;;;;71.05;42.25;;;;;;;-0.61;100.00;101577.63;5056161;28;20423;-79
2022/12/04 00:43:18;;;;;;;69.18;41.22;;;;;;;-0.64;100.00;101575.84;5063497;28;20028;-80
2022/12/04 00:45:43;;;;;;;68.38;39.30;;;;;;;-0.65;100.00;101574.09;5068173;28;20036;-80
2022/12/04 00:48:09;;;;;;;66.75;40.45;;;;;;;-0.64;100.00;101575.84;5066711;28;20033;-79
2022/12/04 00:50:35;;;;;;;65.72;39.47;;;;;;;-0.64;100.00;101582.81;5066522;28;20123;-79
2022/12/04 00:53:00;;;;;;;68.25;41.35;;;;;;;-0.62;100.00;101576.75;5055313;28;20032;-80
2022/12/04 00:55:25;;;;;;;63.42;39.70;;;;;;;-0.66;100.00;101572.38;5048869;28;20037;-79
2022/12/04 00:57:51;;;;;;;62.42;38.95;;;;;;;-0.63;100.00;101568.88;5057238;28;20024;-80
2022/12/04 01:00:17;;;;;;;60.65;37.60;;;;;;;-0.62;100.00;101576.75;5067414;28;20020;-80
2022/12/04 01:02:42;;;;;;;66.30;39.28;;;;;;;-0.65;100.00;101576.72;5054276;28;20577;-80
2022/12/04 01:05:08;;;;;;;67.93;39.90;;;;;;;-0.63;100.00;101574.97;5047771;28;20088;-80
2022/12/04 01:07:34;;;;;;;67.97;40.47;;;;;;;-0.59;100.00;101586.34;5062684;28;20066;-78
2022/12/04 01:09:59;;;;;;;66.15;40.42;;;;;;;-0.66;100.00;101572.38;5068140;28;20060;-78
2022/12/04 01:12:24;;;;;;;67.80;41.35;;;;;;;-0.64;100.00;101577.59;5066661;28;20321;-79
2022/12/04 01:14:50;;;;;;;62.47;39.17;;;;;;;-0.64;100.00;101583.69;5066259;28;20067;-80
2022/12/04 01:17:15;;;;;;;68.82;40.90;;;;;;;-0.67;100.00;101581.09;5074948;28;20110;-80
2022/12/04 01:19:41;;;;;;;65.95;40.25;;;;;;;-0.64;100.00;101588.06;5067150;28;20584;-80
2022/12/04 01:22:06;;;;;;;64.70;39.63;;;;;;;-0.62;100.00;101579.38;5064844;28;20112;-80
2022/12/04 01:24:31;;;;;;;66.63;39.88;;;;;;;-0.62;100.00;101581.97;5062521;28;20563;-79
2022/12/04 01:26:57;;;;;;;63.70;39.13;;;;;;;-0.60;100.00;101584.59;5066585;28;20421;-80
2022/12/04 01:29:22;;;;;;;64.43;39.10;;;;;;;-0.64;100.00;101577.59;5066839;28;20024;-78
2022/12/04 01:31:47;;;;;;;67.20;40.15;;;;;;;-0.65;100.00;101581.94;5066542;28;20111;-79
2022/12/04 01:34:12;;;;;;;65.13;40.30;;;;;;;-0.62;100.00;101581.97;5067016;28;20469;-79
2022/12/04 01:36:38;;;;;;;65.97;39.85;;;;;;;-0.65;100.00;101581.94;5066775;28;20036;-80
2022/12/04 01:39:03;;;;;;;61.63;39.00;;;;;;;-0.64;100.00;101585.44;5067857;28;20111;-80
2022/12/04 01:41:29;;;;;;;66.10;39.80;;;;;;;-0.68;100.00;101575.81;5064002;28;20017;-80
2022/12/04 01:44:12;;;;;;;68.43;41.72;;;;;;;-0.65;100.00;101581.94;5067627;28;20028;-80
2022/12/04 01:46:39;;;;;;;65.15;39.30;;;;;;;-0.67;100.00;101581.09;5067425;28;20039;-80
2022/12/04 01:49:13;;;;;;;65.40;39.72;;;;;;;-0.64;100.00;101582.81;5068095;28;20374;-80
2022/12/04 01:51:43;;;;;;;67.57;41.45;;;;;;;-0.66;100.00;101579.34;5060913;28;20025;-80
2022/12/04 01:54:31;;;;;;;65.70;39.88;;;;;;;-0.63;100.00;101569.75;5048116;28;20040;-80
2022/12/04 01:57:10;;;;;;;62.53;39.05;;;;;;;-0.65;100.00;101565.41;5048549;28;20028;-81
2022/12/04 01:59:40;;;;;;;64.18;39.92;;;;;;;-0.62;100.00;101566.28;5047405;28;20230;-80
2022/12/04 02:02:11;;;;;;;68.75;40.97;;;;;;;-0.66;100.00;101568.88;5048149;28;20037;-80
2022/12/04 02:04:39;;;;;;;65.32;40.70;;;;;;;-0.69;100.00;101572.34;5046351;28;20029;-80
2022/12/04 02:07:04;;;;;;;68.50;41.63;;;;;;;-0.68;100.00;101567.97;5051937;28;20078;-80
2022/12/04 02:09:30;;;;;;;63.65;39.15;;;;;;;-0.73;100.00;101562.72;5066152;28;20054;-80
2022/12/04 02:12:20;;;;;;;66.50;40.75;;;;;;;-0.69;100.00;101564.50;5064536;28;20525;-79
2022/12/04 02:15:10;;;;;;;64.40;40.17;;;;;;;-0.67;100.00;101559.25;5066794;28;20047;-79
2022/12/04 02:17:53;;;;;;;68.95;41.90;;;;;;;-0.71;100.00;101568.84;5062720;28;20397;-80
2022/12/04 02:20:40;;;;;;;65.38;41.17;;;;;;;-0.69;100.00;101567.09;5066281;28;20040;-80
2022/12/04 02:23:17;;;;;;;64.22;38.80;;;;;;;-0.68;100.00;101565.38;5062660;28;20037;-80
2022/12/04 02:26:03;;;;;;;64.45;40.20;;;;;;;-0.70;100.00;101562.75;5066377;28;20107;-80
2022/12/04 02:28:50;;;;;;;69.85;42.10;;;;;;;-0.65;100.00;101575.84;5063366;28;20017;-79
2022/12/04 02:31:20;;;;;;;64.22;40.30;;;;;;;-0.69;100.00;101567.09;5067188;28;20880;-80
2022/12/04 02:33:53;;;;;;;67.45;41.05;;;;;;;-0.69;100.00;101561.00;5065468;28;20686;-80
2022/12/04 02:36:22;;;;;;;66.77;42.63;;;;;;;-0.71;100.00;101554.88;5066251;28;20366;-80
2022/12/04 02:38:55;;;;;;;67.43;40.95;;;;;;;-0.73;100.00;101562.72;5062886;28;20039;-80
2022/12/04 02:41:34;;;;;;;66.03;41.70;;;;;;;-0.71;100.00;101558.41;5061193;28;20027;-79
2022/12/04 02:44:23;;;;;;;66.82;42.15;;;;;;;-0.71;100.00;101555.78;5067396;28;20390;-80
2022/12/04 02:46:55;;;;;;;66.57;42.00;;;;;;;-0.72;100.00;101553.13;5064443;28;20478;-79
2022/12/04 02:49:26;;;;;;;67.45;41.90;;;;;;;-0.72;100.00;101556.63;5062218;28;20493;-79
2022/12/04 02:51:54;;;;;;;66.93;41.17;;;;;;;-0.70;100.00;101562.75;5064306;28;20038;-79
2022/12/04 02:54:25;;;;;;;66.95;41.63;;;;;;;-0.71;100.00;101561.00;5085923;28;20028;-79
2022/12/04 02:56:53;;;;;;;66.65;42.17;;;;;;;-0.77;100.00;101548.75;5084610;28;20020;-80
2022/12/04 02:59:25;;;;;;;68.43;41.42;;;;;;;-0.73;100.00;101554.88;5064709;28;20081;-81
2022/12/04 03:01:55;;;;;;;73.47;42.75;;;;;;;-0.78;100.00;101552.25;5047816;28;20055;-80
2022/12/04 03:04:24;;;;;;;68.90;43.05;;;;;;;-0.74;100.00;101558.38;5052517;28;20037;-79
2022/12/04 03:07:05;;;;;;;66.72;41.88;;;;;;;-0.74;100.00;101563.59;5061621;28;20033;-78
2022/12/04 03:09:38;;;;;;;68.10;41.15;;;;;;;-0.70;100.00;101567.97;5063578;28;20498;-78
2022/12/04 03:12:19;;;;;;;73.68;43.70;;;;;;;-0.69;100.00;101559.25;5071661;28;20031;-79
2022/12/04 03:14:53;;;;;;;67.10;42.38;;;;;;;-0.70;100.00;101556.66;5083814;28;20032;-78
2022/12/04 03:17:24;;;;;;;66.35;42.15;;;;;;;-0.73;100.00;101554.88;5082552;28;20024;-79
2022/12/04 03:19:56;;;;;;;70.30;44.13;;;;;;;-0.72;100.00;101558.38;5085045;28;20059;-80
2022/12/04 03:22:23;;;;;;;71.88;43.30;;;;;;;-0.70;100.00;101551.44;5063349;28;20024;-80
2022/12/04 03:24:51;;;;;;;70.45;43.72;;;;;;;-0.70;100.00;101557.53;5050654;28;20509;-80
2022/12/04 03:27:28;;;;;;;70.57;43.17;;;;;;;-0.79;100.00;101544.41;5049940;28;20077;-79
2022/12/04 03:30:07;;;;;;;70.03;43.72;;;;;;;-0.72;100.00;101548.78;5057401;28;20040;-80
2022/12/04 03:32:44;;;;;;;75.20;45.40;;;;;;;-0.72;100.00;101548.78;5079412;28;20032;-80
2022/12/04 03:35:26;;;;;;;69.30;44.42;;;;;;;-0.72;100.00;101553.13;5086654;28;20082;-79
2022/12/04 03:37:55;;;;;;;72.50;43.72;;;;;;;-0.72;100.00;101551.41;5071906;28;20321;-78
2022/12/04 03:40:32;;;;;;;70.35;43.90;;;;;;;-0.70;100.00;101547.06;5060765;28;20041;-80
2022/12/04 03:43:18;;;;;;;67.07;43.53;;;;;;;-0.71;100.00;101545.31;5062488;28;20032;-79
2022/12/04 03:45:49;;;;;;;74.05;44.97;;;;;;;-0.69;100.00;101538.34;5064707;28;20031;-80
2022/12/04 03:48:24;;;;;;;71.55;43.60;;;;;;;-0.68;100.00;101544.44;5063776;28;20473;-80
2022/12/04 03:50:59;;;;;;;70.53;43.97;;;;;;;-0.74;100.00;101536.59;5054861;28;20025;-80
2022/12/04 03:53:38;;;;;;;69.47;42.95;;;;;;;-0.69;100.00;101545.31;5044228;28;20407;-80
2022/12/04 03:56:15;;;;;;;65.72;43.03;;;;;;;-0.72;100.00;101538.31;5058467;28;20059;-80
2022/12/04 03:58:47;;;;;;;69.43;44.03;;;;;;;-0.76;100.00;101533.94;5055064;28;20024;-80
2022/12/04 04:01:16;;;;;;;69.65;43.97;;;;;;;-0.73;100.00;101536.59;5057692;28;20038;-80
2022/12/04 04:03:55;;;;;;;70.28;43.50;;;;;;;-0.74;100.00;101534.84;5066081;28;20047;-80
2022/12/04 04:06:26;;;;;;;70.80;44.25;;;;;;;-0.70;100.00;101540.97;5063794;28;20035;-79
2022/12/04 04:08:55;;;;;;;69.45;43.50;;;;;;;-0.71;100.00;101539.19;5065639;28;20357;-79
2022/12/04 04:11:55;;;;;;;71.68;44.80;;;;;;;-0.67;100.00;101536.63;5054611;28;20020;-79
2022/12/04 04:25:39;;;;;;;70.32;43.97;;;;;;;-0.72;100.00;101535.72;5067744;28;20031;-80
2022/12/04 04:28:04;;;;;;;66.82;42.53;;;;;;;-0.74;100.00;101527.00;5067083;28;20028;-80
2022/12/04 04:30:32;;;;;;;74.00;44.67;;;;;;;-0.74;100.00;101526.13;5062397;28;20469;-81
2022/12/04 04:33:10;;;;;;;69.60;42.95;;;;;;;-0.68;100.00;101534.88;5065518;28;20020;-80
2022/12/04 04:35:50;;;;;;;71.25;43.78;;;;;;;-0.69;100.00;101532.25;5062170;28;20032;-80
2022/12/04 04:38:26;;;;;;;70.00;44.83;;;;;;;-0.70;100.00;101531.38;5060185;28;20597;-80
2022/12/04 04:41:00;;;;;;;72.68;45.13;;;;;;;-0.65;100.00;101541.88;5054794;28;20071;-80
2022/12/04 04:44:06;;;;;;;70.45;44.15;;;;;;;-0.64;100.00;101533.16;5063887;28;20082;-79
2022/12/04 04:46:35;;;;;;;73.43;43.72;;;;;;;-0.67;100.00;101533.13;5059390;28;20490;-80
2022/12/04 04:49:05;;;;;;;67.75;43.58;;;;;;;-0.74;100.00;101521.78;5058478;28;20048;-80
2022/12/04 04:51:33;;;;;;;72.65;44.22;;;;;;;-0.67;100.00;101535.75;5057978;28;20028;-80
2022/12/04 04:54:03;;;;;;;69.25;43.38;;;;;;;-0.66;100.00;101533.16;5088023;28;20107;-79
2022/12/04 04:56:28;;;;;;;71.47;44.22;;;;;;;-0.71;100.00;101527.03;5064187;28;20094;-79
2022/12/04 04:58:54;;;;;;;71.15;44.30;;;;;;;-0.66;100.00;101537.50;5066743;28;20032;-80
2022/12/04 05:01:23;;;;;;;66.28;43.38;;;;;;;-0.65;100.00;101547.09;5067595;28;20489;-80
2022/12/04 05:03:48;;;;;;;71.30;44.63;;;;;;;-0.66;100.00;101535.75;5068389;28;20059;-80
2022/12/04 05:06:14;;;;;;;70.63;44.20;;;;;;;-0.68;100.00;101534.88;5067540;28;20039;-79
2022/12/04 05:08:39;;;;;;;70.32;44.63;;;;;;;-0.67;100.00;101538.34;5067103;28;20087;-80
2022/12/04 05:11:10;;;;;;;66.25;42.10;;;;;;;-0.67;100.00;101541.88;5061495;28;20051;-80
2022/12/04 05:13:35;;;;;;;70.25;42.80;;;;;;;-0.68;100.00;101541.84;5069305;28;20074;-80
2022/12/04 05:16:06;;;;;;;70.28;43.92;;;;;;;-0.68;100.00;101549.69;5073804;28;20424;-78
2022/12/04 05:18:33;;;;;;;73.35;44.88;;;;;;;-0.69;100.00;101543.59;5089674;28;20431;-80
2022/12/04 05:20:58;;;;;;;67.80;43.35;;;;;;;-0.67;100.00;101541.88;5069310;28;20025;-79
2022/12/04 05:23:24;;;;;;;69.93;43.20;;;;;;;-0.76;100.00;101529.59;5057374;28;20039;-80
2022/12/04 05:25:50;;;;;;;73.32;43.78;;;;;;;-0.69;100.00;101537.47;5056153;28;20108;-80
2022/12/04 05:28:15;;;;;;;72.50;44.50;;;;;;;-0.71;100.00;101537.47;5061673;28;20078;-80
2022/12/04 05:30:41;;;;;;;69.25;42.80;;;;;;;-0.74;100.00;101529.63;5061621;28;20021;-80
2022/12/04 05:33:06;;;;;;;72.68;43.88;;;;;;;-0.76;100.00;101529.59;5055469;28;20033;-79
2022/12/04 05:35:31;;;;;;;69.47;42.78;;;;;;;-0.73;100.00;101531.34;5048354;28;20533;-79
2022/12/04 05:37:57;;;;;;;71.85;44.65;;;;;;;-0.72;100.00;101534.84;5060730;28;20085;-79
2022/12/04 05:40:22;;;;;;;70.90;43.95;;;;;;;-0.78;100.00;101530.47;5061887;28;20043;-80
2022/12/04 05:42:47;;;;;;;70.97;44.08;;;;;;;-0.73;100.00;101527.88;5067522;28;20027;-80
2022/12/04 05:45:13;;;;;;;71.88;44.35;;;;;;;-0.72;100.00;101533.09;5067918;28;20031;-80
2022/12/04 05:47:42;;;;;;;70.45;44.33;;;;;;;-0.72;100.00;101532.22;5065715;28;20030;-79
2022/12/04 05:50:10;;;;;;;69.47;43.00;;;;;;;-0.74;100.00;101524.38;5065473;28;20058;-80
2022/12/04 05:52:35;;;;;;;70.28;44.33;;;;;;;-0.79;100.00;101513.03;5073678;28;20047;-80
2022/12/04 05:55:01;;;;;;;73.78;44.22;;;;;;;-0.79;100.00;101518.25;5078145;28;20474;-80
2022/12/04 05:57:26;;;;;;;71.30;43.38;;;;;;;-0.74;100.00;101526.13;5056132;28;20039;-77
2022/12/04 05:59:51;;;;;;;70.65;44.75;;;;;;;-0.76;100.00;101518.25;5048001;28;20338;-79
2022/12/04 06:02:17;;;;;;;71.40;42.85;;;;;;;-0.74;100.00;101523.50;5047211;28;20025;-80
2022/12/04 06:04:42;;;;;;;72.53;45.20;;;;;;;-0.76;100.00;101520.88;5048742;28;20035;-79
2022/12/04 06:07:09;;;;;;;69.25;44.92;;;;;;;-0.78;100.00;101512.16;5049386;28;20068;-79
2022/12/04 06:09:35;;;;;;;68.35;43.83;;;;;;;-0.78;100.00;101513.03;5055593;28;20050;-80
2022/12/04 06:12:01;;;;;;;69.65;43.08;;;;;;;-0.78;100.00;101512.16;5077256;28;20035;-79
2022/12/04 06:14:27;;;;;;;68.38;42.65;;;;;;;-0.77;100.00;101517.38;5066949;28;20039;-78
2022/12/04 06:16:52;;;;;;;70.53;44.78;;;;;;;-0.71;100.00;101524.41;5077108;28;20036;-80
2022/12/04 06:19:19;;;;;;;74.20;46.05;;;;;;;-0.75;100.00;101520.03;5065576;28;20036;-80
2022/12/04 06:21:47;;;;;;;72.60;44.03;;;;;;;-0.70;100.00;101523.53;5062249;28;20032;-79
2022/12/04 06:24:15;;;;;;;73.25;44.35;;;;;;;-0.71;100.00;101523.50;5059445;28;20486;-79
2022/12/04 06:26:41;;;;;;;71.35;44.88;;;;;;;-0.71;100.00;101513.97;5067403;28;20077;-79
2022/12/04 06:29:06;;;;;;;71.53;43.33;;;;;;;-0.73;100.00;101512.19;5064536;28;20024;-80
2022/12/04 06:31:34;;;;;;;73.57;45.13;;;;;;;-0.74;100.00;101516.53;5065374;28;20043;-79
2022/12/04 06:34:00;;;;;;;73.28;45.17;;;;;;;-0.80;100.00;101519.09;5065544;28;20024;-80
2022/12/04 06:36:25;;;;;;;70.68;43.30;;;;;;;-0.69;100.00;101524.41;5065439;28;20047;-79
2022/12/04 06:38:53;;;;;;;67.78;43.28;;;;;;;-0.69;100.00;101527.03;5042894;28;20060;-80
2022/12/04 06:41:19;;;;;;;71.75;44.97;;;;;;;-0.71;100.00;101527.03;5050754;28;20021;-80
2022/12/04 06:43:45;;;;;;;73.20;44.85;;;;;;;-0.71;100.00;101527.03;5063189;28;20572;-78
2022/12/04 06:46:17;;;;;;;73.45;45.53;;;;;;;-0.70;100.00;101531.38;5064180;28;20039;-80
2022/12/04 06:48:43;;;;;;;73.95;45.05;;;;;;;-0.73;100.00;101520.91;5052073;28;20037;-79
2022/12/04 06:51:21;;;;;;;69.70;43.67;;;;;;;-0.70;100.00;101527.91;5049008;28;20098;-80
2022/12/04 06:53:46;;;;;;;72.50;43.65;;;;;;;-0.68;100.00;101527.03;5085281;28;20036;-80
2022/12/04 06:56:16;;;;;;;68.82;43.47;;;;;;;-0.67;100.00;101536.63;5064975;28;20039;-80
2022/12/04 06:58:43;;;;;;;68.18;42.75;;;;;;;-0.66;100.00;101535.75;5064509;28;20070;-79
2022/12/04 07:01:12;;;;;;;68.95;42.38;;;;;;;-0.70;100.00;101531.38;5062013;28;20035;-79
2022/12/04 07:03:38;;;;;;;70.53;43.03;;;;;;;-0.70;100.00;101523.53;5064569;28;20107;-79
2022/12/04 07:06:26;;;;;;;72.68;44.30;;;;;;;-0.64;100.00;101539.25;5063423;28;20115;-80
2022/12/04 07:08:53;;;;;;;67.68;42.97;;;;;;;-0.68;100.00;101540.09;5064232;28;20057;-80
2022/12/04 07:11:20;;;;;;;68.18;43.63;;;;;;;-0.69;100.00;101548.81;5056805;28;20028;-79
2022/12/04 07:13:46;;;;;;;72.95;44.33;;;;;;;-0.70;100.00;101535.75;5086963;28;20085;-79
2022/12/04 07:16:14;;;;;;;69.47;43.33;;;;;;;-0.65;100.00;101555.81;5081407;28;20036;-79
2022/12/04 07:18:40;;;;;;;65.70;41.45;;;;;;;-0.66;100.00;101547.97;5067666;28;20098;-79
2022/12/04 07:21:07;;;;;;;73.00;43.67;;;;;;;-0.68;100.00;101554.91;5050179;28;20057;-80
2022/12/04 07:23:33;;;;;;;67.32;42.90;;;;;;;-0.66;100.00;101561.03;5064094;28;20563;-80
2022/12/04 07:26:04;;;;;;;67.28;43.30;;;;;;;-0.64;100.00;101562.78;5067035;28;20025;-80
2022/12/04 07:28:29;;;;;;;68.82;43.63;;;;;;;-0.64;100.00;101564.53;5063619;28;20028;-80
2022/12/04 07:30:54;;;;;;;70.57;44.17;;;;;;;-0.64;100.00;101561.91;5063453;28;20394;-80
2022/12/04 07:33:19;;;;;;;65.65;41.85;;;;;;;-0.66;100.00;101556.69;5066111;28;20036;-78
2022/12/04 07:35:53;;;;;;;68.85;43.22;;;;;;;-0.62;100.00;101562.81;5065770;28;20024;-79
2022/12/04 07:38:18;;;;;;;66.78;42.50;;;;;;;-0.68;100.00;101557.53;5063654;28;20032;-80
2022/12/04 07:40:44;;;;;;;64.13;41.85;;;;;;;-0.61;100.00;101560.19;5068471;28;20028;-80
2022/12/04 07:43:09;;;;;;;64.75;41.85;;;;;;;-0.61;100.00;101554.97;5072060;28;20043;-80
2022/12/04 07:45:35;;;;;;;64.10;41.45;;;;;;;-0.61;100.00;101569.78;5060353;28;20086;-79
2022/12/04 07:48:01;;;;;;;63.85;40.20;;;;;;;-0.59;100.00;101574.13;5043820;28;20502;-79
2022/12/04 07:50:26;;;;;;;61.60;40.13;;;;;;;-0.58;100.00;101573.28;5059030;28;20031;-79
2022/12/04 07:52:51;;;;;;;64.53;42.42;;;;;;;-0.62;100.00;101555.84;5080729;28;20326;-80
2022/12/04 07:55:16;;;;;;;63.25;40.60;;;;;;;-0.55;100.00;101567.19;5066447;28;20390;-79
2022/12/04 07:57:42;;;;;;;63.20;41.67;;;;;;;-0.55;100.00;101568.06;5068131;28;20111;-80
2022/12/04 08:00:08;;;;;;;63.00;40.72;;;;;;;-0.51;100.00;101575.06;5063727;28;20385;-81
2022/12/04 08:02:33;;;;;;;58.45;37.72;;;;;;;-0.49;100.00;101579.44;5066971;28;20036;-80
2022/12/04 08:04:58;;;;;;;59.28;39.42;;;;;;;-0.47;100.00;101573.34;5067240;28;20595;-81
2022/12/04 08:07:24;;;;;;;57.70;39.10;;;;;;;-0.48;100.00;101575.97;5068118;28;20028;-78
2022/12/04 08:09:49;;;;;;;55.72;37.67;;;;;;;-0.43;100.00;101580.34;5068521;28;20036;-79
2022/12/04 08:12:14;;;;;;;58.42;37.60;;;;;;;-0.45;100.00;101574.25;5069972;28;20503;-80
2022/12/04 08:14:40;;;;;;;58.95;38.05;;;;;;;-0.39;100.00;101579.50;5070502;28;20116;-79
2022/12/04 08:17:05;;;;;;;57.70;37.70;;;;;;;-0.38;100.00;101575.13;5070225;28;20055;-79
2022/12/04 08:19:30;;;;;;;51.28;34.67;;;;;;;-0.37;100.00;101576.91;5066751;28;20025;-79
2022/12/04 08:21:56;;;;;;;55.15;36.88;;;;;;;-0.36;100.00;101579.53;5069459;28;20087;-80
2022/12/04 08:24:21;;;;;;;55.72;36.08;;;;;;;-0.32;100.00;101586.53;5067222;28;20035;-80
2022/12/04 08:26:46;;;;;;;54.38;36.20;;;;;;;-0.32;100.00;101583.91;5066094;28;20077;-80
2022/12/04 08:29:11;;;;;;;57.10;36.08;;;;;;;-0.31;100.00;101584.78;5064386;28;20029;-79
2022/12/04 08:31:37;;;;;;;56.50;36.38;;;;;;;-0.31;100.00;101574.31;5059954;28;20016;-79
2022/12/04 08:34:05;;;;;;;51.70;36.28;;;;;;;-0.28;100.00;101582.19;5088557;28;20019;-78
2022/12/04 08:36:31;;;;;;;50.03;34.28;;;;;;;-0.28;100.00;101588.28;5070919;28;20029;-81
2022/12/04 08:38:56;;;;;;;53.17;35.33;;;;;;;-0.27;100.00;101574.34;5066728;28;20055;-80
2022/12/04 08:41:24;;;;;;;53.42;35.20;;;;;;;-0.23;100.00;101580.47;5068452;28;20036;-79
2022/12/04 08:43:53;;;;;;;52.90;35.05;;;;;;;-0.25;100.00;101566.50;5067500;28;20033;-80
2022/12/04 08:46:19;;;;;;;54.85;36.22;;;;;;;-0.17;100.00;101577.00;5066962;28;20505;-81
2022/12/04 08:48:45;;;;;;;50.85;33.92;;;;;;;-0.15;100.00;101572.66;5054090;28;20020;-80
2022/12/04 08:51:13;;;;;;;51.90;34.67;;;;;;;-0.16;100.00;101569.16;5066848;28;20077;-79
2022/12/04 08:53:39;;;;;;;55.63;35.83;;;;;;;-0.17;100.00;101559.53;5066707;28;20047;-79
2022/12/04 08:56:04;;;;;;;50.90;34.17;;;;;;;-0.10;100.00;101576.16;5067466;28;20029;-80
2022/12/04 08:58:30;;;;;;;46.47;32.85;;;;;;;-0.11;99.89;101562.22;5064864;28;20032;-80
2022/12/04 09:00:55;;;;;;;50.63;33.78;;;;;;;-0.06;100.00;101564.84;5045701;28;20041;-79
2022/12/04 09:03:21;;;;;;;51.83;34.15;;;;;;;0.00;99.90;101564.88;5045788;28;20025;-78
2022/12/04 09:05:47;;;;;;;48.90;33.17;;;;;;;0.02;99.37;101564.88;5053623;28;20028;-81
2022/12/04 09:08:14;;;;;;;51.38;33.08;;;;;;;0.07;99.40;101573.63;5049919;28;20021;-79
2022/12/04 09:10:40;;;;;;;44.72;31.45;;;;;;;0.03;99.24;101572.72;5075567;28;20113;-80
2022/12/04 09:13:05;;;;;;;44.83;31.58;;;;;;;0.07;98.81;101574.50;5086366;28;20047;-78
2022/12/04 09:15:31;;;;;;;44.67;30.60;;;;;;;0.10;98.64;101573.63;5086921;28;20024;-80
2022/12/04 09:17:57;;;;;;;42.60;29.63;;;;;;;0.08;98.44;101567.50;5066642;28;20370;-79
2022/12/04 09:20:22;;;;;;;42.97;29.20;;;;;;;0.11;98.33;101573.63;5057574;28;20036;-80
2022/12/04 09:22:47;;;;;;;43.78;30.35;;;;;;;0.18;98.45;101582.41;5060994;28;20448;-79
2022/12/04 09:25:13;;;;;;;43.10;29.90;;;;;;;0.24;98.33;101588.50;5064487;28;20032;-79
2022/12/04 09:27:42;;;;;;;43.60;29.92;;;;;;;0.27;98.53;101571.94;5053234;28;20029;-80
2022/12/04 09:30:09;;;;;;;45.63;31.05;;;;;;;0.28;98.12;101576.31;5049243;28;20036;-80
2022/12/04 09:32:35;;;;;;;42.78;29.90;;;;;;;0.36;98.14;101584.19;5048348;28;20280;-80
2022/12/04 09:35:00;;;;;;;40.15;28.80;;;;;;;0.35;97.97;101585.94;5060442;28;20481;-80
2022/12/04 09:37:25;;;;;;;41.60;29.50;;;;;;;0.30;96.87;101577.19;5067418;28;20064;-80
2022/12/04 09:39:51;;;;;;;42.67;29.25;;;;;;;0.29;96.60;101578.03;5066272;28;20405;-80
2022/12/04 09:42:16;;;;;;;40.60;28.20;;;;;;;0.28;96.83;101572.81;5067730;28;20057;-79
2022/12/04 09:45:01;;;;;;;39.40;27.38;;;;;;;0.25;97.10;101584.13;5066055;28;20032;-80
2022/12/04 09:47:31;;;;;;;39.17;27.60;;;;;;;0.16;96.52;101579.75;5065202;28;20387;-80
2022/12/04 09:50:19;;;;;;;40.88;28.08;;;;;;;0.14;97.04;101578.88;5066910;28;20062;-80
2022/12/04 09:52:59;;;;;;;43.22;28.95;;;;;;;0.09;96.44;101584.97;5065015;28;20032;-80
2022/12/04 09:55:54;;;;;;;44.20;30.67;;;;;;;0.02;96.66;101594.53;5065078;28;20089;-79
2022/12/04 09:58:22;;;;;;;42.05;30.45;;;;;;;-0.09;96.67;101586.63;5054587;28;20110;-81
2022/12/04 10:00:50;;;;;;;41.33;29.05;;;;;;;-0.10;96.61;101597.97;5063841;28;20107;-81
2022/12/04 10:03:18;;;;;;;41.08;29.80;;;;;;;-0.14;97.00;101592.72;5059328;28;20032;-82
2022/12/04 10:05:57;;;;;;;40.28;29.17;;;;;;;-0.14;97.25;101590.97;5055658;28;20042;-81
2022/12/04 10:08:28;;;;;;;42.03;30.02;;;;;;;-0.14;97.21;101592.72;5062440;28;20133;-82
2022/12/04 10:11:24;;;;;;;41.45;29.60;;;;;;;-0.10;97.47;101595.34;5067319;28;20158;-81
2022/12/04 10:14:24;;;;;;;43.38;31.05;;;;;;;-0.13;97.34;101582.25;5063665;28;20079;-80
2022/12/04 10:17:10;;;;;;;43.55;30.92;;;;;;;-0.10;97.69;101584.88;5063106;28;20493;-81
2022/12/04 10:19:54;;;;;;;41.40;29.80;;;;;;;-0.07;97.81;101582.28;5063097;28;20068;-81
2022/12/04 10:22:35;;;;;;;;;;;;;;;0.03;97.83;101579.72;5067111;28;20090;-81
2022/12/04 10:25:05;;;;;;;45.72;31.15;;;;;;;-0.10;97.26;101574.41;5066636;28;19916;-80
2022/12/04 10:27:43;;;;;;;42.15;30.60;;;;;;;-0.08;97.68;101577.94;5059339;28;20029;-80
2022/12/04 10:30:17;;;;;;;42.95;31.80;;;;;;;-0.10;97.68;101574.41;5063407;28;20054;-80
2022/12/04 10:32:46;;;;;;;43.33;31.40;;;;;;;-0.05;98.13;101574.44;5066163;28;20033;-81
2022/12/04 10:35:26;;;;;;;43.92;31.67;;;;;;;-0.03;97.93;101586.66;5065182;28;20095;-80
2022/12/04 10:38:14;;;;;;;42.50;31.40;;;;;;;-0.05;97.86;101592.75;5063897;28;20032;-80
2022/12/04 10:40:47;;;;;;;43.33;32.13;;;;;;;-0.07;97.72;101602.34;5054915;28;20390;-80
2022/12/04 10:43:13;;;;;;;;;;;;;;;0.03;98.03;101598.91;5066284;28;20020;-80
2022/12/04 10:45:38;;;;;;;42.25;31.52;;;;;;;-0.03;97.82;101599.75;5061794;28;20049;-81
2022/12/04 10:48:06;;;;;;;45.42;33.42;;;;;;;-0.05;97.89;101591.00;5059414;28;20064;-81
2022/12/04 10:50:32;;;;;;;46.10;33.10;;;;;;;-0.04;98.01;101584.94;5063378;28;20744;-80
2022/12/04 10:52:58;;;;;;;42.80;31.40;;;;;;;-0.03;97.88;101581.44;5073631;28;20024;-79
2022/12/04 10:55:31;;;;;;;41.90;31.52;;;;;;;-0.04;98.26;101579.69;5061190;28;20033;-80
2022/12/04 10:57:56;;;;;;;44.00;31.42;;;;;;;-0.07;98.10;101566.59;5049673;28;20053;-80
2022/12/04 11:00:32;;;;;;;44.50;31.88;;;;;;;-0.05;98.43;101577.06;5062489;28;20063;-80
2022/12/04 11:03:09;;;;;;;44.15;32.00;;;;;;;-0.07;98.30;101569.22;5063877;28;20032;-81
2022/12/04 11:05:52;;;;;;;40.90;30.42;;;;;;;-0.03;98.52;101560.50;5057054;28;20043;-80
2022/12/04 11:08:29;;;;;;;42.03;31.03;;;;;;;-0.13;97.92;101560.44;5059781;28;20028;-79
2022/12/04 11:11:00;;;;;;;42.95;31.42;;;;;;;-0.06;98.08;101559.59;5060227;28;20313;-79
2022/12/04 11:13:26;;;;;;;45.22;32.97;;;;;;;-0.06;97.91;101557.00;5058962;28;20052;-79
2022/12/04 11:15:54;;;;;;;44.15;31.92;;;;;;;-0.04;98.07;101552.66;5062051;28;20063;-80
2022/12/04 11:18:28;;;;;;;41.60;30.70;;;;;;;-0.04;98.05;101558.75;5055106;28;20031;-80
2022/12/04 11:21:00;;;;;;;43.05;31.58;;;;;;;-0.10;97.92;101550.88;5064105;28;20078;-80
2022/12/04 11:23:30;;;;;;;38.55;29.50;;;;;;;-0.11;97.85;101537.78;5061888;28;20413;-80
2022/12/04 11:25:58;;;;;;;41.97;30.58;;;;;;;-0.07;98.21;101545.66;5063138;28;20340;-79
2022/12/04 11:28:29;;;;;;;40.33;29.88;;;;;;;-0.05;98.22;101550.88;5059645;28;20353;-80